Duke Field,(Eglin Af Aux Nr 3) Airport
KEGI : rendu visible

Aérodrome :











RETROUVEZ-NOUS SUR...

 
LOGIN :

S'inscrire | Disclaimer

   EN    FR    IT 

 









Légende :    VFR   VFR Marginal   IFR   IFR Intensif   IFR Très Intensif
Visi : 
Plafond : 
>= 8 km
>= 3000ft
5 à 8 km
1000 à 3000 ft
1500m à 5 km
500 à 1000 ft
800 à 1500m
200 à 500 ft
< 800m
< 200 ft
Symboles :   Orages  Brouillard  Fortes neiges  Fortes précipitations  Vent > 20 kt







- Altitude de l'aérodrome : 191 ft


KEGI - Duke Field,(Eglin Af Aux Nr 3)

DERNIER METAR :
  • 241103Z AUTO 00000KT 3/8SM R18/1800V2400FT FG BKN000 22/22 A3000 RMK AO2 BKN V SCT SLP158 $

METARs EXPIRÉS :
  • 241056Z AUTO 00000KT 1/2SM R18/1800V2400FT FG SCT000 22/22 A3000 RMK AO2 VIS 1/2V1 SLP158 T02230223 $
  • 241042Z AUTO 00000KT 1 1/2SM R18/5000FT BR FEW000 23/23 A3000 RMK AO2 VIS 1 1/8V1 5/8 SLP158 $
  • 241026Z AUTO 00000KT 1 1/8SM R18/4000FT BR CLR 23/23 A2999 RMK AO2 SLP155 $
  • 241016Z AUTO 00000KT 1 1/4SM R18/4000FT BR CLR 23/23 A2999 RMK AO2 SLP155 $
  • 241001Z AUTO 00000KT 1 7/8SM R18/6000FT BR CLR 23/23 A2999 RMK AO2 VIS 1 7/8V6 SLP155 $
  • 240956Z AUTO 00000KT 2 1/2SM BR CLR 23/23 A2998 RMK AO2 VIS 2 1/2V10 SLP151 T02290229 $
  • 240856Z AUTO 00000KT 10SM CLR 23/23 A2997 RMK AO2 SLP148 T02290229 56007 $
  • 240826Z AUTO 00000KT 7SM BR CLR 23/23 A2996 RMK AO2 SLP144 $
  • 240821Z AUTO 00000KT 1 3/4SM R18/5500FT BR CLR 23/23 A2997 RMK AO2 VIS 1 1/8V1 3/4 SLP148 $
  • 240816Z AUTO 00000KT 1 1/8SM R18/4000FT BR CLR 23/23 A2997 RMK AO2 VIS 1 1/8V1 5/8 SLP148 $

TAF TAF KEGI
Valide du 24 à 01h jusqu'au 25 à 07h UTC


240100Z 2401/2507 23006KT 9999 FEW030 BKN200 QNH2995INS
BECMG 2412/2413 30009KT 9999 FEW025 SCT200 QNH2998INS
BECMG 2417/2418 31010KT 9000 -SHRA VCTS SCT025CB SCT100 BKN200 QNH2997INS
TEMPO 2418/2421 4800 -TSRA BKN025CB
BECMG 2421/2422 27009KT 9999 NSW FEW025 SCT100 BKN200 QNH2992INS TX33/2419Z TN23/2409Z LAST NO AMDS AFT 2406 NEXT 2609
Pas de NOTAMs connus pour ce terrain.



MET'MAP, la Météo Aéronautique d'un coup d'oeil ! - Copyright ORBIFLY Décembre 2007 - Disclaimer

ORBIFLY MET'MAP TEAM :

Programmation & Développement : Alexandra Zaïnal
Conception & Développement : Baudouin d'Aumeries
Co-Programmation & Développement : Marc-Olivier Méhu
Soutien technique & logistique : Manuel Goepfert

Contact : metmap@orbifly.com




SOURCES & CREDITS :

   NOAA       Earth
Advisory